Terminal Aerodrome Forecast
Issued by NWS Wilmington, NC

Home | Current Version | Previous Version | Text Only | Print | Product List | Glossary On
Versions: 1 2 3 4 5 6 7 8 9 10 11 12 13 14 15 16
000
FTUS42 KILM 290500
TAFILM
TAF
KILM 290539Z 2906/3006 34006KT P6SM SCT040 BKN250
     FM290800 36006KT P6SM SCT040
     FM291400 03012KT P6SM SCT050=

USA.gov is the U.S. government's official web portal to all federal, state and local government web resources and services.